Flight Track Log - Related Links

Times and Time Zones

All times are in EDT time to prevent confusion due to time zone crossing. See the N706XJ flight status page for this flight to view local times or setup timezone preferences in your user account.

Time Position Orientation Groundspeed Altitude Reporting Facility
EDT Latitude Longitude Course Direction KTS MPH feet Rate Location/Type
Tue 07:36:47 PM 37.7167 -122.2500 310° West 168 193 900  Level Northern Cal TRACON
Tue 07:37:47 PM 37.7500 -122.3000 310° West 223 257 3,000 2,800 Climbing Northern Cal TRACON
Tue 07:38:47 PM 37.8167 -122.2667 22° Northeast 262 302 6,500 3,172 Climbing Northern Cal TRACON
Tue 07:39:14 PM 37.8156 -122.2319 92° East 252 290 7,600 3,341 Climbing Oakland Center
Tue 07:40:15 PM 37.8367 -122.1372 74° East 275 316 11,400 3,148 Climbing Oakland Center
Tue 07:41:16 PM 37.8597 -122.0272 75° East 318 366 14,000 2,439 Climbing Oakland Center
Tue 07:42:18 PM 37.8864 -121.9044 75° East 355 409 16,400 2,195 Climbing Oakland Center
Tue 07:43:19 PM 37.9189 -121.7506 75° East 375 432 18,500 1,869 Climbing Oakland Center
Tue 07:44:20 PM 37.9469 -121.6186 75° East 386 444 20,200 1,869 Climbing Oakland Center
Tue 07:45:21 PM 37.9750 -121.4794 76° East 394 453 22,300 1,918 Climbing Oakland Center
Tue 07:46:22 PM 38.0039 -121.3439 75° East 401 461 24,100 1,707 Climbing Oakland Center
Tue 07:47:24 PM 38.0333 -121.2028 75° East 414 476 25,800 1,610 Climbing Oakland Center
Tue 07:48:25 PM 38.0636 -121.0544 75° East 434 499 27,400 1,475 Climbing Oakland Center
Tue 07:49:26 PM 38.0892 -120.8986 78° East 453 521 28,800 1,426 Climbing Oakland Center
Tue 07:50:27 PM 38.1103 -120.7364 81° East 466 536 30,300 1,463 Climbing Oakland Center
Tue 07:51:29 PM 38.1328 -120.5700 80° East 476 548 31,800 1,463 Climbing Oakland Center
Tue 07:52:30 PM 38.1556 -120.3981 80° East 490 564 33,300 1,623 Climbing Oakland Center
Tue 07:53:31 PM 38.1828 -120.1853 81° East 504 580 35,100 1,574 Climbing Oakland Center
Tue 07:54:32 PM 38.2072 -120.0056 80° East 514 592 36,500 1,171 Climbing Oakland Center
Tue 07:55:34 PM 38.2300 -119.8247 81° East 518 596 37,500 1,024 Climbing Oakland Center
Tue 07:56:35 PM 38.2539 -119.6414 81° East 524 603 38,600 1,131 Climbing Oakland Center
Tue 07:57:36 PM 38.2772 -119.4519 81° East 522 601 39,800 1,033 Climbing Oakland Center
Tue 07:58:37 PM 38.2978 -119.2714 82° East 518 596 40,700 787 Climbing Oakland Center
Tue 07:59:38 PM 38.3197 -119.0939 81° East 512 589 41,400 683 Climbing Oakland Center
Tue 08:00:40 PM 38.3408 -118.9139 81° East 515 593 42,100 634 Climbing Oakland Center
Tue 08:01:41 PM 38.3619 -118.7350 81° East 514 592 42,700 639 Climbing Oakland Center
Tue 08:02:42 PM 38.3828 -118.5561 81° East 513 590 43,400 639 Climbing Oakland Center
Tue 08:03:43 PM 38.4022 -118.3783 82° East 510 587 44,000 488 Climbing Oakland Center
Tue 08:04:45 PM 38.4267 -118.1631 82° East 513 590 44,400 293 Climbing Oakland Center
Tue 08:05:46 PM 38.4442 -118.0042 82° East 517 595 44,600 246 Climbing Oakland Center
Tue 08:06:47 PM 38.4642 -117.8208 82° East 520 598 44,900 197 Climbing Oakland Center
Tue 08:07:48 PM 38.4842 -117.6347 82° East 525 604 45,000 68 Climbing Oakland Center
Tue 08:08:15 PM 38.4956 -117.5225 83° East 527 606 45,000  Level Salt Lake Center
Tue 08:08:50 PM 38.5078 -117.4100 82° East 527 606 45,000  Level Oakland Center
Tue 08:09:17 PM 38.5172 -117.3339 81° East 530 610 45,000  Level Salt Lake Center
Tue 08:10:18 PM 38.5550 -117.1497 75° East 530 610 45,000  Level Salt Lake Center
Tue 08:10:52 PM 38.5769 -117.0403 76° East 529 609 45,000  Level Oakland Center
Tue 08:11:53 PM 38.6153 -116.8556 75° East 532 612 45,000  Level Oakland Center
Tue 08:12:21 PM 38.6289 -116.7811 77° East 533 613 45,000  Level Salt Lake Center
Tue 08:13:22 PM 38.6653 -116.5986 76° East 530 610 45,000  Level Salt Lake Center
Tue 08:13:56 PM 38.6869 -116.4897 76° East 529 609 45,000  Level Oakland Center
Tue 08:14:57 PM 38.7239 -116.3053 76° East 533 613 45,000  Level Oakland Center
Tue 08:15:25 PM 38.7386 -116.2306 76° East 535 616 45,000  Level Salt Lake Center
Tue 08:16:26 PM 38.7736 -116.0458 76° East 533 613 45,000  Level Salt Lake Center
Tue 08:17:28 PM 38.8089 -115.8597 76° East 538 619 45,000  Level Salt Lake Center
Tue 08:18:29 PM 38.8444 -115.6753 76° East 534 615 45,000  Level Salt Lake Center
Tue 08:19:31 PM 38.8875 -115.4536 76° East 532 612 45,000  Level Salt Lake Center
Tue 08:20:32 PM 38.9208 -115.2733 77° East 533 613 45,000  Level Salt Lake Center
Tue 08:21:33 PM 38.9556 -115.0869 76° East 536 617 45,000  Level Salt Lake Center
Tue 08:22:35 PM 38.9886 -114.9031 77° East 532 612 45,000  Level Salt Lake Center
Tue 08:23:36 PM 39.0231 -114.7158 77° East 536 617 45,000  Level Salt Lake Center
Tue 08:24:38 PM 39.0572 -114.5283 77° East 539 620 45,000  Level Salt Lake Center
Tue 08:25:39 PM 39.0908 -114.3408 77° East 539 620 45,000  Level Salt Lake Center
Tue 08:26:41 PM 39.1242 -114.1514 77° East 541 623 45,000  Level Salt Lake Center
Tue 08:27:42 PM 39.1639 -113.9239 77° East 542 624 45,000  Level Salt Lake Center
Tue 08:28:44 PM 39.1964 -113.7375 77° East 535 616 45,000  Level Salt Lake Center
Tue 08:29:45 PM 39.2275 -113.5506 78° East 534 615 45,000  Level Salt Lake Center
Tue 08:30:47 PM 39.2592 -113.3636 78° East 534 615 45,000  Level Salt Lake Center
Tue 08:31:48 PM 39.2906 -113.1789 78° East 529 609 45,000  Level Salt Lake Center
Tue 08:32:50 PM 39.3206 -112.9917 78° East 532 612 45,000  Level Salt Lake Center
Tue 08:33:51 PM 39.3517 -112.8044 78° East 534 615 45,000  Level Salt Lake Center
Tue 08:34:53 PM 39.3819 -112.6183 78° East 530 610 45,000  Level Salt Lake Center
Tue 08:35:54 PM 39.4136 -112.4311 78° East 533 613 45,000  Level Salt Lake Center
Tue 08:36:56 PM 39.4489 -112.2056 78° East 534 615 45,000  Level Salt Lake Center
Tue 08:37:57 PM 39.4775 -112.0186 79° East 535 616 45,000  Level Salt Lake Center
Tue 08:38:59 PM 39.5069 -111.8333 78° East 531 611 45,000  Level Salt Lake Center
Tue 08:40:00 PM 39.5347 -111.6458 79° East 533 613 45,000 -49 Level Salt Lake Center
Tue 08:41:02 PM 39.5636 -111.4553 79° East 538 619 44,900  Descending Salt Lake Center
Tue 08:42:03 PM 39.5936 -111.2492 79° East 530 610 45,000 49 Climbing Salt Lake Center
Tue 08:43:05 PM 39.6194 -111.0733 79° East 520 598 45,000  Level Salt Lake Center
Tue 08:44:06 PM 39.6494 -110.8633 79° East 529 609 45,000  Level Salt Lake Center
Tue 08:45:08 PM 39.6764 -110.6833 79° East 531 611 45,000  Level Salt Lake Center
Tue 08:46:09 PM 39.7014 -110.5028 80° East 532 612 45,000  Level Salt Lake Center
Tue 08:47:11 PM 39.7325 -110.2897 79° East 536 617 45,000  Level Salt Lake Center
Tue 08:48:12 PM 39.7558 -110.1069 81° East 536 617 45,000  Level Salt Lake Center
Tue 08:49:14 PM 39.7861 -109.8919 80° East 540 621 45,000  Level Salt Lake Center
Tue 08:50:15 PM 39.8114 -109.7061 80° East 544 626 45,000  Level Salt Lake Center
Tue 08:51:18 PM 39.8356 -109.5183 80° East 548 631 45,000  Level Salt Lake Center
Tue 08:51:37 PM 39.8478 -109.4231 80° East 549 632 45,000  Level Denver Center
Tue 08:52:18 PM 39.8644 -109.3000 80° East 547 629 45,000  Level Salt Lake Center
Tue 08:53:19 PM 39.8892 -109.1100 80° East 551 634 45,000  Level Salt Lake Center
Tue 08:54:21 PM 39.9183 -108.8878 80° East 553 636 45,000  Level Salt Lake Center
Tue 08:54:41 PM 39.9253 -108.8222 82° East 553 636 45,000  Level Denver Center
Tue 08:55:43 PM 39.9506 -108.6294 80° East 556 640 45,000  Level Denver Center
Tue 08:56:44 PM 39.9728 -108.4378 81° East 556 640 45,000  Level Denver Center
Tue 08:57:46 PM 39.9997 -108.2153 81° East 552 635 45,000  Level Denver Center
Tue 08:58:47 PM 40.0231 -108.0253 81° East 552 635 45,000  Level Denver Center
Tue 08:59:48 PM 40.0444 -107.8372 81° East 548 631 45,000  Level Denver Center
Tue 09:00:50 PM 40.0694 -107.6203 81° East 542 624 45,000  Level Denver Center
Tue 09:01:51 PM 40.0911 -107.4356 81° East 539 620 45,000  Level Denver Center
Tue 09:02:53 PM 40.1158 -107.2194 81° East 538 619 45,000  Level Denver Center
Tue 09:03:54 PM 40.1353 -107.0347 82° East 538 619 45,000  Level Denver Center
Tue 09:04:55 PM 40.1569 -106.8508 81° East 537 618 45,000  Level Denver Center
Tue 09:05:57 PM 40.1800 -106.6350 82° East 537 618 45,000  Level Denver Center
Tue 09:06:58 PM 40.1997 -106.4389 82° East 534 615 45,000  Level Denver Center
Tue 09:07:59 PM 40.2222 -106.2369 82° East 533 613 45,000  Level Denver Center
Tue 09:09:01 PM 40.2408 -106.0497 83° East 536 617 45,000  Level Denver Center
Tue 09:10:02 PM 40.2606 -105.8550 82° East 535 616 45,000  Level Denver Center
Tue 09:11:04 PM 40.2797 -105.6572 83° East 541 623 45,000  Level Denver Center
Tue 09:12:05 PM 40.2989 -105.4561 83° East 550 633 45,000  Level Denver Center
Tue 09:13:06 PM 40.3181 -105.2539 83° East 549 632 45,000  Level Denver Center
Tue 09:14:08 PM 40.3364 -105.0506 83° East 551 634 45,000  Level Denver Center
Tue 09:15:09 PM 40.3553 -104.8500 83° East 549 632 45,000  Level Denver Center
Tue 09:16:11 PM 40.3733 -104.6517 83° East 542 624 45,000  Level Denver Center
Tue 09:17:12 PM 40.3911 -104.4525 83° East 542 624 45,000  Level Denver Center
Tue 09:18:14 PM 40.4069 -104.2578 84° East 531 611 45,000  Level Denver Center
Tue 09:19:15 PM 40.4269 -104.0261 83° East 536 617 45,000  Level Denver Center
Tue 09:20:17 PM 40.4431 -103.8267 84° East 542 624 45,000  Level Denver Center
Tue 09:21:43 PM 40.4622 -103.5953 84° East 537 618 45,000  Level Denver Center
Tue 09:22:45 PM 40.4811 -103.3569 84° East 553 636 45,000  Level Denver Center
Tue 09:23:46 PM 40.4961 -103.1536 84° East 554 638 45,000  Level Denver Center
Tue 09:24:48 PM 40.5114 -102.9514 84° East 551 634 45,000  Level Denver Center
Tue 09:25:50 PM 40.5261 -102.7486 84° East 552 635 45,000  Level Denver Center
Tue 09:26:51 PM 40.5411 -102.5286 85° East 555 639 45,000  Level Denver Center
Tue 09:27:53 PM 40.5569 -102.3047 85° East 551 634 45,000  Level Denver Center
Tue 09:28:55 PM 40.5703 -102.1142 85° East 548 631 45,000  Level Denver Center
Tue 09:29:56 PM 40.5831 -101.9250 85° East 544 626 45,000  Level Denver Center
Tue 09:30:58 PM 40.5978 -101.7011 85° East 549 632 45,000  Level Denver Center
Tue 09:32:00 PM 40.6089 -101.5092 86° East 551 634 45,000  Level Denver Center
Tue 09:33:01 PM 40.6225 -101.2864 85° East 549 632 45,000  Level Denver Center
Tue 09:34:03 PM 40.6331 -101.0986 86° East 543 625 45,000  Level Denver Center
Tue 09:35:05 PM 40.6450 -100.8797 86° East 543 625 45,000  Level Denver Center
Tue 09:36:19 PM 40.6586 -100.6314 86° East 544 626 45,000  Level Denver Center
Tue 09:37:20 PM 40.6683 -100.4442 86° East 543 625 45,000  Level Denver Center
Tue 09:38:22 PM 40.6800 -100.2250 86° East 542 624 45,000  Level Denver Center
Tue 09:39:24 PM 40.6892 -100.0372 86° East 540 621 45,000  Level Denver Center
Tue 09:40:26 PM 40.6978 -99.8494 86° East 537 618 45,000  Level Denver Center
Tue 09:41:27 PM 40.7069 -99.6569 86° East 530 610 45,000  Level Denver Center
Tue 09:42:29 PM 40.7172 -99.4303 87° East 519 597 45,000  Level Denver Center
Tue 09:43:31 PM 40.7247 -99.2425 87° East 515 593 45,000  Level Denver Center
Tue 09:44:30 PM 40.7331 -99.0550 87° East 518 596 45,000  Level Minneapolis Center
Tue 09:45:31 PM 40.7394 -98.8669 87° East 519 597 45,000  Level Minneapolis Center
Tue 09:46:32 PM 40.7464 -98.6767 87° East 523 602 45,000  Level Minneapolis Center
Tue 09:47:33 PM 40.7539 -98.4875 87° East 523 602 45,000  Level Minneapolis Center
Tue 09:48:34 PM 40.7600 -98.2981 87° East 521 600 45,000  Level Minneapolis Center
Tue 09:49:36 PM 40.7658 -98.1092 88° East 520 598 45,000  Level Minneapolis Center
Tue 09:50:37 PM 40.7711 -97.9200 88° East 519 597 45,000  Level Minneapolis Center
Tue 09:51:38 PM 40.7786 -97.6931 87° East 517 595 45,000  Level Minneapolis Center
Tue 09:52:39 PM 40.7831 -97.5014 88° East 521 600 45,000  Level Minneapolis Center
Tue 09:53:41 PM 40.7869 -97.3189 88° East 524 603 45,000  Level Minneapolis Center
Tue 09:54:42 PM 40.7931 -97.1297 87° East 520 598 45,000  Level Minneapolis Center
Tue 09:55:43 PM 40.7983 -96.9400 88° East 520 598 45,000  Level Minneapolis Center
Tue 09:56:44 PM 40.8006 -96.7508 89° East 518 596 45,000  Level Minneapolis Center
Tue 09:57:45 PM 40.8044 -96.5625 88° East 516 594 45,000  Level Minneapolis Center
Tue 09:58:46 PM 40.8083 -96.3767 88° East 513 590 45,000  Level Minneapolis Center
Tue 09:59:47 PM 40.8117 -96.1517 89° East 515 593 45,000  Level Minneapolis Center
Tue 10:00:49 PM 40.8147 -95.9656 89° East 512 589 45,000  Level Minneapolis Center
Tue 10:01:50 PM 40.8169 -95.7800 89° East 511 588 45,000  Level Minneapolis Center
Tue 10:02:51 PM 40.8181 -95.5936 89° East 511 588 45,000  Level Minneapolis Center
Tue 10:03:52 PM 40.8208 -95.4058 89° East 515 593 45,000  Level Minneapolis Center
Tue 10:04:53 PM 40.8231 -95.2194 89° East 513 590 45,000  Level Minneapolis Center
Tue 10:05:54 PM 40.8236 -95.0319 90° East 512 589 45,000  Level Minneapolis Center
Tue 10:06:55 PM 40.8250 -94.8450 89° East 513 590 45,000  Level Minneapolis Center
Tue 10:07:56 PM 40.8253 -94.6203 90° East 513 590 45,000  Level Minneapolis Center
Tue 10:08:57 PM 40.8250 -94.4503 90° East 511 588 45,000  Level Minneapolis Center
Tue 10:09:58 PM 40.8256 -94.2650 90° East 510 587 45,000  Level Minneapolis Center
Tue 10:11:00 PM 40.8237 -94.0789 91° East  Level FlightAware Approximate
Tue 10:12:07 PM 40.8225 -93.8514 91° East 513 590 45,000  Level Chicago Center
Tue 10:13:01 PM 40.8219 -93.7031 90° East 516 594 45,000  Level Minneapolis Center
Tue 10:14:02 PM 40.8203 -93.5158 91° East 515 593 45,000  Level Minneapolis Center
Tue 10:15:03 PM 40.8183 -93.2906 91° East 514 592 45,000  Level Minneapolis Center
Tue 10:16:04 PM 40.8164 -93.0997 91° East 520 598 45,000  Level Minneapolis Center
Tue 10:18:05 PM 40.8122 -92.7186 91° East 521 600 45,000  Level Minneapolis Center
Tue 10:19:06 PM 40.8086 -92.5264 91° East 522 601 45,000  Level Minneapolis Center
Tue 10:20:07 PM 40.8044 -92.3347 92° East 522 601 45,000  Level Minneapolis Center
Tue 10:21:08 PM 40.8011 -92.1422 91° East 524 603 45,000  Level Minneapolis Center
Tue 10:22:09 PM 40.7972 -91.9522 91° East 522 601 45,000  Level Minneapolis Center
Tue 10:23:10 PM 40.7925 -91.7675 92° East 526 605 45,000  Level Minneapolis Center
Tue 10:24:20 PM 40.7881 -91.5308 91° East 525 604 45,000  Level Chicago Center
Tue 10:25:21 PM 40.7822 -91.3403 92° East 523 602 45,000  Level Chicago Center
Tue 10:26:22 PM 40.7775 -91.1422 92° East 525 604 45,000  Level Chicago Center
Tue 10:27:23 PM 40.7708 -90.9514 93° East 522 601 45,000  Level Chicago Center
Tue 10:28:24 PM 40.7658 -90.7606 92° East 520 598 45,000  Level Chicago Center
Tue 10:29:25 PM 40.7589 -90.5706 93° East 520 598 45,000  Level Chicago Center
Tue 10:30:26 PM 40.7522 -90.3808 93° East 519 597 45,000  Level Chicago Center
Tue 10:31:27 PM 40.7453 -90.1681 92° East 519 597 45,000  Level Chicago Center
Tue 10:32:28 PM 40.7392 -89.9803 92° East 519 597 45,000  Level Chicago Center
Tue 10:33:29 PM 40.7308 -89.7911 93° East 519 597 45,000  Level Chicago Center
Tue 10:34:30 PM 40.7203 -89.6011 94° East 521 600 45,000  Level Chicago Center
Tue 10:35:32 PM 40.7144 -89.4100 92° East 524 603 45,000  Level Chicago Center
Tue 10:36:33 PM 40.7050 -89.2211 94° East 517 595 45,000  Level Chicago Center
Tue 10:37:34 PM 40.6964 -89.0322 93° East 517 595 45,000  Level Chicago Center
Tue 10:38:35 PM 40.6867 -88.8119 93° East 518 596 45,000  Level Chicago Center
Tue 10:39:36 PM 40.6775 -88.6242 94° East 521 600 45,000  Level Chicago Center
Tue 10:40:37 PM 40.6689 -88.4383 93° East 517 595 45,000  Level Chicago Center
Tue 10:41:38 PM 40.6589 -88.2514 94° East 517 595 45,000  Level Chicago Center
Tue 10:42:39 PM 40.6486 -88.0642 94° East 518 596 45,000  Level Chicago Center
Tue 10:43:40 PM 40.6383 -87.8750 94° East 523 602 45,000  Level Chicago Center
Tue 10:44:41 PM 40.6264 -87.6503 94° East 520 598 45,000  Level Chicago Center
Tue 10:45:42 PM 40.6153 -87.4603 94° East 525 604 45,000  Level Chicago Center
Tue 10:46:43 PM 40.6033 -87.2742 95° East 519 597 45,000  Level Chicago Center
Tue 10:47:44 PM 40.5914 -87.0831 95° East 522 601 45,000  Level Chicago Center
Tue 10:48:44 PM 40.5778 -86.8933 95° East 519 597 45,000  Level Chicago Center
Tue 10:49:45 PM 40.5653 -86.7014 95° East 520 598 45,000  Level Chicago Center
Tue 10:50:46 PM 40.5528 -86.5111 95° East 519 597 45,000  Level Chicago Center
Tue 10:51:48 PM 40.5389 -86.3203 95° East 520 598 45,000  Level Chicago Center
Tue 10:53:49 PM 40.5122 -85.9386 95° East 519 597 45,000  Level Chicago Center
Tue 10:54:50 PM 40.4969 -85.7467 96° East 523 602 45,000  Level Chicago Center
Tue 10:55:51 PM 40.4822 -85.5553 96° East 522 601 45,000  Level Chicago Center
Tue 10:56:52 PM 40.4678 -85.3650 96° East 521 600 45,000  Level Chicago Center
Tue 10:57:53 PM 40.4528 -85.1753 96° East 521 600 45,000  Level Chicago Center
Tue 10:58:12 PM 40.4478 -85.1106 96° East 519 597 45,000  Level Indianapolis Center
Tue 10:59:14 PM 40.4322 -84.9192 96° East 520 598 45,000  Level Indianapolis Center
Tue 11:00:15 PM 40.4167 -84.7389 96° East 526 605 45,000  Level Indianapolis Center
Tue 11:01:16 PM 40.3969 -84.5172 97° East 519 597 45,000  Level Indianapolis Center
Tue 11:02:18 PM 40.3814 -84.3267 96° East 520 598 45,000  Level Indianapolis Center
Tue 11:03:19 PM 40.3636 -84.1361 97° East 518 596 45,000  Level Indianapolis Center
Tue 11:04:20 PM 40.3469 -83.9458 96° East 519 597 45,000  Level Indianapolis Center
Tue 11:05:21 PM 40.3294 -83.7561 97° East 517 595 45,000  Level Indianapolis Center
Tue 11:06:23 PM 40.3100 -83.5642 98° East 522 601 45,000  Level Indianapolis Center
Tue 11:07:24 PM 40.2733 -83.3750 104° East 527 606 45,000  Level Indianapolis Center
Tue 11:08:25 PM 40.2392 -83.1856 103° East 527 606 45,000  Level Indianapolis Center
Tue 11:09:27 PM 40.2025 -82.9983 104° East 525 604 45,000  Level Indianapolis Center
Tue 11:10:28 PM 40.1672 -82.8100 104° East 525 604 45,000  Level Indianapolis Center
Tue 11:11:29 PM 40.1308 -82.6236 104° East 524 603 45,000  Level Indianapolis Center
Tue 11:12:30 PM 40.0944 -82.4378 104° East 523 602 45,000  Level Indianapolis Center
Tue 11:13:32 PM 40.0578 -82.2525 104° East 523 602 45,000  Level Indianapolis Center
Tue 11:14:33 PM 40.0211 -82.0664 104° East 525 604 45,000  Level Indianapolis Center
Tue 11:15:34 PM 39.9831 -81.8814 105° East 524 603 45,000  Level Indianapolis Center
Tue 11:16:35 PM 39.9472 -81.6967 104° East 520 598 45,000  Level Indianapolis Center
Tue 11:17:36 PM 39.9094 -81.5131 105° East 523 602 45,000  Level Indianapolis Center
Tue 11:18:38 PM 39.8711 -81.3253 105° East 520 598 45,000  Level Indianapolis Center
Tue 11:19:39 PM 39.8325 -81.1444 105° East 518 596 45,000  Level Indianapolis Center
Tue 11:20:40 PM 39.7942 -80.9622 105° East 520 598 45,000  Level Indianapolis Center
Tue 11:21:41 PM 39.7567 -80.7811 105° East 519 597 45,000 -1,082 Level Indianapolis Center
Tue 11:22:42 PM 39.7172 -80.6000 106° East 519 597 42,800 -2,553 Descending Indianapolis Center
Tue 11:24:49 PM 39.6394 -80.2214 105° East 516 594 37,000 -2,727 Descending Washington Center
Tue 11:25:49 PM 39.6019 -80.0519 106° East 516 594 34,300 -2,200 Descending Washington Center
Tue 11:26:49 PM 39.5644 -79.8800 106° East 502 578 32,600 -2,400 Descending Washington Center
Tue 11:27:49 PM 39.5331 -79.7086 103° East 497 572 29,500 -2,777 Descending Washington Center
Tue 11:28:50 PM 39.5011 -79.5372 104° East 492 566 27,000 -1,230 Descending Washington Center
Tue 11:29:51 PM 39.4733 -79.3664 102° East 487 560 27,000 -694 Level Washington Center
Tue 11:30:51 PM 39.4372 -79.1869 105° East 500 575 25,600 -2,034 Descending Washington Center
Tue 11:31:49 PM 39.4067 -79.0189 103° East 491 565 23,000 -2,571 Descending Washington Center
Tue 11:32:50 PM 39.3778 -78.8539 103° East 478 550 20,500 -2,410 Descending Washington Center
Tue 11:33:51 PM 39.3467 -78.6967 104° East 467 537 18,100 -2,350 Descending Washington Center
Tue 11:34:50 PM 39.3192 -78.5428 103° East 447 514 15,800 -2,200 Descending Washington Center
Tue 11:35:51 PM 39.2953 -78.4103 103° East 417 480 13,700 -1,900 Descending Washington Center
Tue 11:36:50 PM 39.2706 -78.2994 106° East 366 421 12,000 -1,800 Descending Washington Center
Tue 11:37:51 PM 39.2500 -78.1967 104° East 326 375 10,100 -1,884 Descending Washington Center
Tue 11:38:51 PM 39.2356 -78.0972 101° East 294 338 8,200 -1,881 Descending Washington Center
Tue 11:39:49 PM 39.2228 -78.0003 100° East 274 315 6,400 -1,627 Descending Washington Center
Tue 11:40:49 PM 39.2142 -77.9089 97° East 269 310 5,000 -862 Descending Washington Center
Tue 11:42:36 PM 39.2000 -77.7500 97° East 251 289 4,000 -370 Descending Potomac TRACON
Tue 11:43:31 PM 39.1833 -77.6833 108° East 233 268 4,000 -261 Level Potomac TRACON
Tue 11:44:31 PM 39.1833 -77.6167 90° East 206 237 3,500 -500 Descending Potomac TRACON
Tue 11:45:31 PM 39.1667 -77.5500 108° East 200 230 3,000 -250 Descending Potomac TRACON
Tue 11:46:31 PM 39.1333 -77.5000 131° Southeast 199 229 3,000 -150 Level Potomac TRACON
Tue 11:47:31 PM 39.1000 -77.4500 131° Southeast 189 217 2,700 -450 Descending Potomac TRACON
Tue 11:48:31 PM 39.0500 -77.4333 165° South 179 206 2,100 -700 Descending Potomac TRACON
Tue 11:49:31 PM 39.0000 -77.4333 180° South 159 183 1,300 -800 Descending Potomac TRACON
Tue 11:51:00 PM 38.9474 -77.4599 165° South  Level Estimated
Tue 11:58:00 PM 38.9474 -77.4599 165° South  Level Estimated
Tue 11:59:00 PM 38.9474 -77.4599 165° South  Level Estimated
Wed 12:00:00 AM 38.9474 -77.4599 165° South  Level Estimated

Login

Don't have an account? Register now (free) for customized features, flight alerts, and more!